Time;durP1;ratioP1;P1;durP2;ratioP2;P2;SDS_P1;SDS_P2;PMS_P1;PMS_P2;Temp;Humidity;BMP_temperature;BMP_pressure;BME280_temperature;BME280_humidity;BME280_pressure;Samples;Min_cycle;Max_cycle;Signal;HPM_P1;HPM_P2
2023/03/30 00:01:16;;;;;;;14.73;7.72;;;;;;;5.61;57.81;99229.20;1750600;80;21533;-58
2023/03/30 00:03:44;;;;;;;10.90;7.08;;;;;;;5.64;57.92;99228.71;1744310;80;21053;-58
2023/03/30 00:06:13;;;;;;;13.32;7.87;;;;;;;5.61;57.93;99228.37;1751305;80;21160;-58
2023/03/30 00:08:39;;;;;;;13.58;7.53;;;;;;;5.61;58.00;99230.50;1747712;81;21050;-58
2023/03/30 00:11:08;;;;;;;13.55;7.25;;;;;;;5.63;58.17;99218.81;1753080;80;21045;-58
2023/03/30 00:13:37;;;;;;;12.20;7.03;;;;;;;5.63;58.08;99221.82;1751838;80;21117;-58
2023/03/30 00:16:06;;;;;;;13.95;7.22;;;;;;;5.61;58.11;99221.89;1746533;80;21477;-58
2023/03/30 00:18:33;;;;;;;14.20;7.20;;;;;;;5.58;58.15;99218.95;1747867;80;21532;-58
2023/03/30 00:21:01;;;;;;;13.18;7.25;;;;;;;5.59;58.44;99222.39;1747937;80;20978;-58
2023/03/30 00:23:28;;;;;;;12.68;6.60;;;;;;;5.61;58.38;99224.03;1746516;80;21070;-58
2023/03/30 00:25:55;;;;;;;12.15;6.90;;;;;;;5.62;58.41;99224.87;1747093;80;21053;-59
2023/03/30 00:28:22;;;;;;;13.93;6.28;;;;;;;5.61;58.39;99216.25;1756096;80;21113;-58
2023/03/30 00:30:48;;;;;;;10.95;6.92;;;;;;;5.66;58.50;99220.41;1753535;80;21026;-58
2023/03/30 00:33:15;;;;;;;13.97;7.57;;;;;;;5.69;58.51;99216.45;1752369;80;21050;-58
2023/03/30 00:35:41;;;;;;;13.43;6.60;;;;;;;5.68;58.49;99221.22;1748906;80;21017;-58
2023/03/30 00:38:07;;;;;;;15.55;7.08;;;;;;;5.66;58.65;99207.05;1753434;80;21136;-58
2023/03/30 00:40:34;;;;;;;12.85;7.28;;;;;;;5.66;58.57;99212.64;1748061;80;20998;-58
2023/03/30 00:43:03;;;;;;;12.43;6.67;;;;;;;5.67;58.60;99204.83;1748396;80;21025;-58
2023/03/30 00:45:32;;;;;;;9.30;5.80;;;;;;;5.68;58.65;99200.49;1754333;80;21616;-58
2023/03/30 00:48:17;;;;;;;10.40;6.42;;;;;;;5.68;58.70;99200.49;1747120;80;21022;-58
2023/03/30 00:50:59;;;;;;;12.03;5.97;;;;;;;5.70;58.76;99203.88;1745244;80;21011;-58
2023/03/30 00:53:38;;;;;;;8.63;6.17;;;;;;;5.73;58.85;99201.18;1748011;80;21097;-58
2023/03/30 00:56:07;;;;;;;11.35;5.83;;;;;;;5.72;58.81;99199.50;1746956;81;21560;-58
2023/03/30 00:58:36;;;;;;;11.40;6.62;;;;;;;5.73;58.89;99199.43;1747856;80;21078;-58
2023/03/30 01:01:05;;;;;;;11.57;6.35;;;;;;;5.73;58.93;99201.18;1750169;80;21067;-58
2023/03/30 01:03:38;;;;;;;10.68;6.37;;;;;;;5.72;59.15;99199.50;1740609;80;20955;-58
2023/03/30 01:06:06;;;;;;;13.78;6.20;;;;;;;5.68;59.30;99192.72;1752952;80;21029;-58
2023/03/30 01:08:33;;;;;;;11.63;6.37;;;;;;;5.58;59.12;99196.95;1745830;80;21063;-58
2023/03/30 01:11:01;;;;;;;11.63;6.75;;;;;;;5.53;59.16;99192.37;1747965;80;21536;-58
2023/03/30 01:13:30;;;;;;;12.23;6.70;;;;;;;5.55;59.31;99189.73;1750357;80;21038;-58
2023/03/30 01:16:24;;;;;;;11.03;6.87;;;;;;;5.48;59.21;99192.97;1750556;80;21089;-58
2023/03/30 01:19:00;;;;;;;13.68;6.65;;;;;;;5.44;59.40;99195.75;1752117;80;21065;-58
2023/03/30 01:21:57;;;;;;;10.23;6.47;;;;;;;5.39;59.49;99207.55;1750554;80;21500;-58
2023/03/30 01:24:47;;;;;;;10.82;6.47;;;;;;;5.39;59.54;99201.07;1776404;79;20998;-58
2023/03/30 01:27:24;;;;;;;13.85;7.00;;;;;;;5.34;59.70;99204.27;1733720;80;20961;-58
2023/03/30 01:30:11;;;;;;;11.33;6.03;;;;;;;5.27;59.71;99200.20;1748228;80;21089;-58
2023/03/30 01:33:02;;;;;;;14.53;6.85;;;;;;;5.24;59.73;99195.98;1747886;80;21126;-58
2023/03/30 01:35:35;;;;;;;10.60;6.53;;;;;;;5.23;59.85;99193.42;1776719;79;21006;-58
2023/03/30 01:38:05;;;;;;;11.08;6.22;;;;;;;5.23;59.86;99191.67;1748024;80;21051;-58
2023/03/30 01:40:43;;;;;;;12.68;6.35;;;;;;;5.27;59.89;99195.03;1749384;80;21545;-58
2023/03/30 01:43:19;;;;;;;11.83;6.00;;;;;;;5.29;59.86;99186.31;1752539;80;21546;-58
2023/03/30 01:46:07;;;;;;;10.05;5.35;;;;;;;5.32;59.90;99185.34;1795985;78;21037;-58
2023/03/30 01:48:38;;;;;;;10.65;6.20;;;;;;;5.34;59.94;99177.08;1783691;78;21108;-58
2023/03/30 01:51:11;;;;;;;9.35;6.40;;;;;;;5.31;59.90;99175.89;1793744;78;21515;-58
2023/03/30 01:53:43;;;;;;;11.05;6.00;;;;;;;5.28;60.03;99169.53;1791047;78;21049;-58
2023/03/30 01:56:16;;;;;;;11.12;6.10;;;;;;;5.28;60.03;99170.83;1785895;78;21006;-58
2023/03/30 01:58:52;;;;;;;11.57;5.75;;;;;;;5.26;60.12;99170.02;1794476;78;21112;-58
2023/03/30 02:01:20;;;;;;;8.48;5.42;;;;;;;5.25;60.15;99166.59;1801238;78;21473;-58
2023/03/30 02:03:53;;;;;;;9.33;5.78;;;;;;;5.26;60.25;99163.55;1787144;78;20994;-58
2023/03/30 02:06:23;;;;;;;14.15;5.95;;;;;;;5.24;60.25;99167.96;1797871;78;21021;-58
2023/03/30 02:08:53;;;;;;;8.05;5.25;;;;;;;5.22;60.26;99160.69;1791787;78;21567;-58
2023/03/30 02:11:22;;;;;;;11.65;5.87;;;;;;;5.16;60.25;99166.47;1789700;78;21655;-58
2023/03/30 02:13:51;;;;;;;9.15;5.50;;;;;;;5.09;60.21;99163.67;1796175;78;21040;-58
2023/03/30 02:16:24;;;;;;;8.78;5.30;;;;;;;5.02;60.29;99161.37;1791184;78;21016;-58
2023/03/30 02:18:53;;;;;;;10.68;5.83;;;;;;;4.98;60.42;99160.60;1793090;78;21419;-58
2023/03/30 02:21:18;;;;;;;10.48;5.70;;;;;;;4.95;60.48;99168.47;1795850;78;21041;-58
2023/03/30 02:23:45;;;;;;;10.35;5.90;;;;;;;4.90;60.50;99170.36;1794060;78;20942;-58
2023/03/30 02:26:12;;;;;;;9.93;5.60;;;;;;;4.84;60.58;99166.69;1791455;78;21116;-58
2023/03/30 02:28:39;;;;;;;10.20;5.08;;;;;;;4.80;60.63;99171.58;1789433;78;21159;-58
2023/03/30 02:31:14;;;;;;;8.60;5.93;;;;;;;4.79;60.76;99159.52;1793292;78;20993;-58
2023/03/30 02:34:05;;;;;;;12.13;5.65;;;;;;;4.78;60.82;99163.01;1789151;78;21073;-58
2023/03/30 02:37:06;;;;;;;8.68;5.62;;;;;;;4.71;60.85;99165.80;1793750;78;21052;-58
2023/03/30 02:39:39;;;;;;;11.78;5.70;;;;;;;4.70;60.97;99164.13;1792046;78;21044;-58
2023/03/30 02:42:25;;;;;;;8.60;5.00;;;;;;;4.73;61.09;99161.02;1708306;82;21006;-58
2023/03/30 02:44:58;;;;;;;7.25;5.03;;;;;;;4.75;61.00;99157.94;1734842;81;21002;-58
2023/03/30 02:47:46;;;;;;;9.38;5.47;;;;;;;4.73;61.16;99150.67;1729495;81;21058;-58
2023/03/30 02:50:16;;;;;;;11.20;5.60;;;;;;;4.70;61.21;99153.78;1725380;81;21030;-58
2023/03/30 02:53:05;;;;;;;8.38;5.47;;;;;;;4.70;61.26;99148.61;1724461;81;21523;-58
2023/03/30 02:55:38;;;;;;;11.05;5.30;;;;;;;4.68;61.39;99150.39;1723052;81;21523;-58
2023/03/30 02:58:08;;;;;;;11.45;5.92;;;;;;;4.64;61.43;99153.95;1717181;81;21018;-58
2023/03/30 03:00:38;;;;;;;10.28;5.25;;;;;;;4.67;61.51;99145.25;1724370;82;21124;-58
2023/03/30 03:03:07;;;;;;;8.25;5.37;;;;;;;4.69;61.62;99145.59;1720804;82;21018;-58
2023/03/30 03:05:35;;;;;;;10.38;5.83;;;;;;;4.71;61.64;99137.35;1750007;80;20986;-58
2023/03/30 03:08:01;;;;;;;10.23;5.40;;;;;;;4.74;61.64;99145.91;1753037;80;21031;-58
2023/03/30 03:10:28;;;;;;;18.53;6.63;;;;;;;4.73;61.65;99139.03;1729328;81;21015;-58
2023/03/30 03:12:54;;;;;;;12.55;6.05;;;;;;;4.72;61.74;99138.19;1693645;82;21007;-58
2023/03/30 03:15:21;;;;;;;10.78;5.75;;;;;;;4.74;61.80;99132.98;1729023;81;21045;-58
2023/03/30 03:17:47;;;;;;;15.68;6.40;;;;;;;4.69;61.91;99124.91;1724092;81;20995;-58
2023/03/30 03:20:13;;;;;;;16.10;5.97;;;;;;;4.61;61.87;99126.90;1765957;79;21050;-58
2023/03/30 03:22:40;;;;;;;11.78;6.53;;;;;;;4.53;61.89;99121.12;1806991;77;21640;-58
2023/03/30 03:25:07;;;;;;;11.68;6.55;;;;;;;4.46;62.24;99116.61;1776432;79;21071;-58
2023/03/30 03:27:34;;;;;;;10.15;5.28;;;;;;;4.40;62.16;99117.27;1815262;77;21079;-57
2023/03/30 03:30:00;;;;;;;8.98;6.20;;;;;;;4.33;62.16;99117.05;1770528;79;21600;-58
2023/03/30 03:32:26;;;;;;;11.38;5.87;;;;;;;4.30;62.00;99123.61;1797711;77;20982;-58
2023/03/30 03:34:53;;;;;;;12.58;6.30;;;;;;;4.26;62.29;99119.83;1812223;77;20978;-58
2023/03/30 03:37:19;;;;;;;10.82;5.70;;;;;;;4.28;62.37;99118.92;1804837;77;21109;-58
2023/03/30 03:39:45;;;;;;;9.35;5.28;;;;;;;4.35;62.52;99112.69;1802515;77;21086;-58
2023/03/30 03:42:12;;;;;;;11.70;4.92;;;;;;;4.38;62.50;99110.00;1807198;77;21048;-58
2023/03/30 03:44:39;;;;;;;11.80;6.50;;;;;;;4.38;62.68;99106.12;1808392;77;21033;-58
2023/03/30 03:47:05;;;;;;;14.53;5.10;;;;;;;4.42;62.73;99106.41;1774701;80;21128;-58
2023/03/30 03:49:32;;;;;;;11.08;6.05;;;;;;;4.50;62.84;99101.84;1786445;78;21525;-58
2023/03/30 03:51:58;;;;;;;7.35;4.90;;;;;;;4.55;62.70;99110.30;1782502;78;21062;-58
2023/03/30 03:54:25;;;;;;;7.72;5.45;;;;;;;4.57;62.79;99105.93;1780059;78;20986;-58
2023/03/30 03:56:51;;;;;;;9.07;5.73;;;;;;;4.60;62.87;99096.78;1784751;78;21577;-58
2023/03/30 03:59:17;;;;;;;9.05;5.28;;;;;;;4.65;62.91;99101.36;1781099;78;21679;-58
2023/03/30 04:01:43;;;;;;;10.08;5.42;;;;;;;4.69;62.94;99101.64;1783867;78;21354;-58
2023/03/30 04:04:09;;;;;;;10.40;6.47;;;;;;;4.73;62.93;99102.83;1782759;78;20959;-58
2023/03/30 04:06:36;;;;;;;10.50;6.45;;;;;;;4.71;63.00;99098.56;1786365;78;21600;-58
2023/03/30 04:09:02;;;;;;;7.47;5.40;;;;;;;4.62;62.98;99092.83;1784386;78;21591;-58
2023/03/30 04:11:28;;;;;;;8.73;5.30;;;;;;;4.54;62.98;99096.98;1783308;78;21706;-58
2023/03/30 04:13:54;;;;;;;7.17;6.15;;;;;;;4.42;62.96;99087.02;1777162;78;21046;-58
2023/03/30 04:16:21;;;;;;;12.65;7.03;;;;;;;4.36;62.95;99089.81;1782724;78;21105;-58
2023/03/30 04:18:47;;;;;;;9.15;6.28;;;;;;;4.28;63.14;99090.50;1775538;78;21045;-58
2023/03/30 04:21:16;;;;;;;9.43;6.87;;;;;;;4.19;63.08;99086.02;1788818;78;20958;-58
2023/03/30 04:23:44;;;;;;;9.23;7.90;;;;;;;4.13;63.15;99090.09;1788953;78;21066;-58
2023/03/30 04:26:12;;;;;;;29.45;18.17;;;;;;;4.11;63.18;99086.70;1806791;77;21014;-58
2023/03/30 04:28:39;;;;;;;14.45;10.28;;;;;;;4.04;63.22;99082.63;1786181;79;20978;-58
2023/03/30 04:31:11;;;;;;;12.78;7.67;;;;;;;3.99;63.29;99081.92;1803002;78;21509;-58
2023/03/30 04:33:49;;;;;;;14.58;7.40;;;;;;;3.97;63.38;99070.78;1811692;78;20938;-58
2023/03/30 04:36:16;;;;;;;15.08;8.60;;;;;;;3.98;63.48;99076.38;1767017;80;20990;-58
2023/03/30 04:38:43;;;;;;;15.18;8.18;;;;;;;3.99;63.40;99072.88;1813938;77;21484;-58
2023/03/30 04:41:12;;;;;;;11.68;7.70;;;;;;;3.96;63.51;99074.27;1809611;77;21080;-58
2023/03/30 04:43:39;;;;;;;12.68;8.28;;;;;;;3.91;63.43;99070.98;1802964;77;21064;-58
2023/03/30 04:46:06;;;;;;;15.10;8.40;;;;;;;3.87;63.49;99077.14;1760787;80;21057;-58
2023/03/30 04:48:33;;;;;;;14.07;8.60;;;;;;;3.84;63.65;99070.75;1761438;80;21216;-58
2023/03/30 04:50:59;;;;;;;11.05;8.03;;;;;;;3.87;63.69;99069.39;1758941;79;21369;-58
2023/03/30 04:53:25;;;;;;;12.95;7.22;;;;;;;3.88;63.95;99064.17;1754551;80;21025;-58
2023/03/30 04:55:52;;;;;;;11.63;7.97;;;;;;;3.96;64.22;99066.52;1790564;78;20970;-58
2023/03/30 04:58:18;;;;;;;17.92;11.40;;;;;;;4.06;64.28;99054.99;1787202;78;21050;-58
2023/03/30 05:00:44;;;;;;;19.02;11.28;;;;;;;4.10;63.55;99054.02;1777824;78;20987;-58
2023/03/30 05:03:12;;;;;;;14.28;10.08;;;;;;;4.09;63.99;99054.92;1751907;81;21001;-57
2023/03/30 05:05:40;;;;;;;18.85;10.58;;;;;;;4.13;64.34;99059.09;1748360;80;21079;-57
2023/03/30 05:08:06;;;;;;;20.00;12.18;;;;;;;4.20;64.72;99057.14;1752745;81;20986;-56
2023/03/30 05:10:33;;;;;;;20.10;13.35;;;;;;;4.25;64.40;99059.97;1753879;80;21614;-56
2023/03/30 05:13:00;;;;;;;17.62;13.32;;;;;;;4.29;64.56;99061.20;1745102;81;21029;-57
2023/03/30 05:15:26;;;;;;;19.90;13.20;;;;;;;4.31;64.93;99067.14;1743884;81;21019;-56
2023/03/30 05:17:53;;;;;;;22.20;12.35;;;;;;;4.33;64.68;99052.44;1745510;81;21061;-56
2023/03/30 05:20:19;;;;;;;19.25;11.75;;;;;;;4.36;64.87;99060.09;1749676;81;21086;-56
2023/03/30 05:22:46;;;;;;;22.58;14.55;;;;;;;4.40;65.07;99061.70;1751712;80;21060;-56
2023/03/30 05:25:16;;;;;;;25.43;12.75;;;;;;;4.48;65.37;99054.50;1749665;80;21001;-56
2023/03/30 05:27:42;;;;;;;26.73;13.85;;;;;;;4.55;65.38;99057.30;1721248;81;21018;-56
2023/03/30 05:30:10;;;;;;;17.20;11.20;;;;;;;4.61;65.54;99055.80;1752521;81;20996;-57
2023/03/30 05:32:37;;;;;;;17.73;11.95;;;;;;;4.71;65.64;99062.35;1745823;81;21033;-56
2023/03/30 05:35:04;;;;;;;18.73;11.83;;;;;;;4.86;65.76;99061.43;1747859;81;21929;-56
2023/03/30 05:37:31;;;;;;;19.35;11.55;;;;;;;4.98;65.75;99054.52;1752208;81;21037;-59
2023/03/30 05:39:57;;;;;;;16.42;10.00;;;;;;;5.13;65.97;99056.59;1745980;81;21421;-57
2023/03/30 05:42:24;;;;;;;16.85;10.32;;;;;;;5.33;66.06;99055.02;1748624;81;21055;-56
2023/03/30 05:44:50;;;;;;;15.50;8.65;;;;;;;5.50;66.01;99052.66;1752406;80;21114;-56
2023/03/30 05:47:16;;;;;;;17.40;8.48;;;;;;;5.65;65.91;99054.27;1751084;80;22469;-57
2023/03/30 05:49:43;;;;;;;12.15;7.30;;;;;;;5.77;65.97;99047.31;1743814;81;21013;-57
2023/03/30 05:52:10;;;;;;;11.57;7.03;;;;;;;5.84;65.85;99048.78;1749305;80;21051;-58
2023/03/30 05:54:36;;;;;;;13.25;8.43;;;;;;;5.96;66.00;99049.62;1747945;81;21537;-57
2023/03/30 05:57:05;;;;;;;10.95;7.75;;;;;;;5.97;66.00;99047.44;1745604;81;21085;-57
2023/03/30 05:59:31;;;;;;;17.75;8.43;;;;;;;5.95;66.24;99044.06;1743648;81;20940;-57
2023/03/30 06:01:58;;;;;;;14.83;8.77;;;;;;;5.97;66.32;99043.55;1746807;80;21025;-57
2023/03/30 06:04:26;;;;;;;13.90;8.90;;;;;;;6.09;66.42;99046.56;1776010;80;21094;-56
2023/03/30 06:06:52;;;;;;;18.17;9.33;;;;;;;6.16;66.40;99041.52;1776605;80;21611;-56
2023/03/30 06:09:18;;;;;;;14.45;9.03;;;;;;;6.26;66.56;99051.45;1773683;80;20992;-57
2023/03/30 06:11:45;;;;;;;16.90;9.73;;;;;;;6.36;66.51;99036.38;1773430;80;21107;-56
2023/03/30 06:14:11;;;;;;;17.10;10.05;;;;;;;6.38;66.46;99044.92;1779265;79;20986;-56
2023/03/30 06:16:39;;;;;;;15.35;9.73;;;;;;;6.38;66.63;99044.92;1775783;78;21047;-56
2023/03/30 06:19:05;;;;;;;13.55;9.03;;;;;;;6.38;66.45;99039.73;1776974;78;21125;-56
2023/03/30 06:21:32;;;;;;;18.25;10.30;;;;;;;6.41;66.70;99034.45;1774896;80;21041;-57
2023/03/30 06:23:58;;;;;;;15.10;9.75;;;;;;;6.46;66.91;99040.27;1782532;80;21630;-57
2023/03/30 06:26:24;;;;;;;13.00;9.03;;;;;;;6.47;66.55;99036.78;1777271;80;21034;-57
2023/03/30 06:28:50;;;;;;;15.20;9.43;;;;;;;6.53;66.83;99029.66;1778045;79;21049;-57
2023/03/30 06:31:17;;;;;;;57.00;29.63;;;;;;;6.62;66.99;99031.86;1777565;78;21090;-57
2023/03/30 06:33:43;;;;;;;30.85;23.20;;;;;;;6.70;66.54;99031.09;1773870;80;21195;-57
2023/03/30 06:36:12;;;;;;;26.52;18.82;;;;;;;6.80;66.62;99025.03;1780230;79;21021;-58
2023/03/30 06:38:38;;;;;;;12.53;9.60;;;;;;;6.80;66.32;99024.58;1776681;78;21519;-57
2023/03/30 06:41:08;;;;;;;26.27;17.57;;;;;;;6.80;66.51;99025.03;1782287;80;21045;-57
2023/03/30 06:43:35;;;;;;;70.20;63.02;;;;;;;6.92;66.64;99025.36;1762070;80;21199;-57
2023/03/30 06:46:02;;;;;;;29.55;24.30;;;;;;;6.97;66.41;99024.30;1770472;79;21064;-57
2023/03/30 06:48:28;;;;;;;74.20;66.77;;;;;;;7.02;66.42;99023.66;1765667;79;21101;-56
2023/03/30 06:50:56;;;;;;;16.65;11.60;;;;;;;7.04;66.37;99024.44;1773144;80;21135;-57
2023/03/30 06:53:22;;;;;;;184.50;164.75;;;;;;;7.06;66.54;99020.87;1794333;79;21010;-58
2023/03/30 06:55:56;;;;;;;47.78;42.53;;;;;;;7.08;66.49;99019.48;1803049;78;20946;-57
2023/03/30 06:58:24;;;;;;;23.27;20.55;;;;;;;7.09;66.51;99016.00;1802905;79;21110;-57
2023/03/30 07:00:51;;;;;;;15.03;9.98;;;;;;;7.13;66.56;99018.83;1798007;79;22622;-57
2023/03/30 07:03:18;;;;;;;15.38;12.03;;;;;;;7.12;66.45;99022.35;1786831;79;21746;-57
2023/03/30 07:05:51;;;;;;;13.18;9.15;;;;;;;7.09;66.65;99018.59;1770921;79;22343;-57
2023/03/30 07:08:18;;;;;;;14.33;10.20;;;;;;;7.10;66.94;99017.67;1771879;80;21053;-57
2023/03/30 07:10:46;;;;;;;;;;;;;;;7.10;67.14;99017.67;1799905;78;21025;-57
2023/03/30 07:13:13;;;;;;;209.90;189.55;;;;;;;7.01;67.52;99018.09;1800262;79;20102;-57
2023/03/30 07:15:39;;;;;;;52.80;47.43;;;;;;;6.89;67.20;99015.12;1797762;78;20927;-57
2023/03/30 07:18:06;;;;;;;17.35;12.28;;;;;;;6.94;67.29;99013.14;1797465;78;21021;-57
2023/03/30 07:20:32;;;;;;;20.92;11.90;;;;;;;7.16;67.46;99012.20;1802656;78;21073;-57
2023/03/30 07:23:02;;;;;;;17.82;12.03;;;;;;;7.31;67.57;99014.12;1799445;79;21098;-57
2023/03/30 07:25:28;;;;;;;23.57;16.75;;;;;;;7.51;67.20;99008.48;1800194;79;21483;-57
2023/03/30 07:27:54;;;;;;;18.95;11.83;;;;;;;7.80;67.48;99004.05;1797858;79;21025;-57
2023/03/30 07:30:21;;;;;;;18.82;12.85;;;;;;;8.17;67.16;99004.88;1798762;78;21082;-57
2023/03/30 07:32:49;;;;;;;44.27;39.13;;;;;;;8.39;66.10;99005.16;1804524;78;21025;-57
2023/03/30 07:35:15;;;;;;;23.02;13.72;;;;;;;8.44;66.58;98996.67;1796470;78;21026;-57
2023/03/30 07:37:42;;;;;;;20.20;15.63;;;;;;;8.76;66.70;98996.33;1794244;79;21065;-57
2023/03/30 07:40:10;;;;;;;16.45;11.57;;;;;;;9.07;66.84;98990.36;1767893;79;21057;-56
2023/03/30 07:42:36;;;;;;;16.32;10.85;;;;;;;9.49;66.48;98996.80;1773302;80;21050;-56
2023/03/30 07:45:04;;;;;;;12.95;10.05;;;;;;;9.79;66.58;98986.93;1795048;79;21090;-57
2023/03/30 07:47:30;;;;;;;14.98;9.83;;;;;;;10.00;66.12;98994.86;1781998;79;21159;-57
2023/03/30 07:49:57;;;;;;;13.38;11.33;;;;;;;10.18;65.75;98996.05;1777550;79;21460;-56
2023/03/30 07:52:23;;;;;;;15.45;9.90;;;;;;;10.24;65.51;98985.25;1779483;79;21018;-56
2023/03/30 07:54:49;;;;;;;12.88;9.35;;;;;;;10.19;65.00;98964.64;1783564;80;21140;-56
2023/03/30 07:57:16;;;;;;;13.83;9.38;;;;;;;10.65;66.25;98988.09;1784962;79;21069;-56
2023/03/30 07:59:42;;;;;;;22.27;9.48;;;;;;;11.22;66.44;98982.05;1774121;79;21155;-57
2023/03/30 08:02:12;;;;;;;15.28;10.28;;;;;;;11.79;65.40;98978.03;1775231;79;20958;-57
2023/03/30 08:04:39;;;;;;;12.70;9.83;;;;;;;11.79;64.43;98979.34;1778213;79;21037;-57
2023/03/30 08:07:05;;;;;;;11.93;9.87;;;;;;;11.86;64.97;98978.02;1735490;81;21705;-57
2023/03/30 08:09:31;;;;;;;15.35;10.00;;;;;;;11.93;62.64;98980.23;1774611;79;21076;-57
2023/03/30 08:11:57;;;;;;;12.23;9.65;;;;;;;11.53;63.63;98972.30;1769445;79;21095;-57
2023/03/30 08:14:26;;;;;;;15.25;11.15;;;;;;;11.36;63.32;98965.52;1770505;79;21036;-57
2023/03/30 08:16:53;;;;;;;15.32;9.68;;;;;;;11.36;63.34;98971.58;1775774;79;22227;-58
2023/03/30 08:19:20;;;;;;;19.42;10.63;;;;;;;11.32;63.57;98971.41;1778038;79;21459;-58
2023/03/30 08:21:46;;;;;;;15.45;10.20;;;;;;;11.46;63.88;98963.17;1771360;79;21633;-57
2023/03/30 08:24:13;;;;;;;13.93;10.82;;;;;;;11.43;62.07;98969.44;1772402;79;21559;-57
2023/03/30 08:26:39;;;;;;;16.82;11.45;;;;;;;11.27;62.07;98962.17;1776146;79;21086;-58
2023/03/30 08:29:06;;;;;;;14.25;10.60;;;;;;;11.01;61.43;98961.14;1776993;79;21033;-56
2023/03/30 08:31:33;;;;;;;16.27;10.65;;;;;;;10.85;61.77;98955.56;1776576;79;21102;-57
2023/03/30 08:34:00;;;;;;;20.30;11.63;;;;;;;10.89;62.12;98957.05;1774276;79;22246;-57
2023/03/30 08:36:26;;;;;;;16.17;11.03;;;;;;;11.01;62.02;98952.00;1772259;79;21118;-57
2023/03/30 08:38:53;;;;;;;18.07;10.93;;;;;;;11.06;62.41;98947.34;1773266;79;21180;-57
2023/03/30 08:41:30;;;;;;;;;;;;;;;11.29;62.59;98945.47;1780811;78;21074;-57
2023/03/30 08:44:02;;;;;;;14.58;10.65;;;;;;;11.52;60.94;98934.03;1769096;79;20295;-57
2023/03/30 08:46:29;;;;;;;12.95;10.50;;;;;;;11.84;61.27;98938.48;1770369;79;21144;-57
2023/03/30 08:49:00;;;;;;;14.30;9.85;;;;;;;11.83;60.95;98938.95;1795613;77;21125;-57
2023/03/30 08:51:29;;;;;;;15.38;11.18;;;;;;;11.91;61.15;98938.97;1802169;77;21109;-57
2023/03/30 08:54:04;;;;;;;12.60;10.93;;;;;;;11.85;61.38;98924.05;1792389;78;21056;-57
2023/03/30 08:56:53;;;;;;;18.23;12.90;;;;;;;11.66;60.83;98928.75;1785983;78;21059;-57
2023/03/30 08:59:25;;;;;;;11.53;9.50;;;;;;;11.69;61.46;98924.63;1795762;77;21111;-56
2023/03/30 09:02:13;;;;;;;12.65;10.60;;;;;;;12.14;62.00;98917.35;1800738;77;21115;-57
2023/03/30 09:04:56;;;;;;;13.00;9.70;;;;;;;12.58;61.29;98906.98;1791866;77;21028;-57
2023/03/30 09:26:13;;;;;;;18.12;9.48;;;;;;;18.24;56.75;98871.33;1815765;77;28714;-58
2023/03/30 09:28:43;;;;;;;11.35;10.20;;;;;;;18.52;57.65;98868.27;1798085;78;21140;-58
2023/03/30 09:31:36;;;;;;;11.73;8.88;;;;;;;19.05;57.90;98866.83;1799852;78;21045;-59
2023/03/30 09:34:06;;;;;;;11.38;9.43;;;;;;;19.54;54.60;98858.09;1798595;78;21062;-60
2023/03/30 09:36:48;;;;;;;14.45;9.53;;;;;;;19.44;53.56;98845.76;1797275;78;21103;-59
2023/03/30 09:39:24;;;;;;;12.35;9.33;;;;;;;19.37;53.74;98842.03;1804467;78;21005;-59
2023/03/30 09:41:57;;;;;;;9.80;8.90;;;;;;;19.15;50.09;98839.81;1799453;78;21061;-60
2023/03/30 09:44:42;;;;;;;11.20;9.00;;;;;;;19.05;53.67;98828.47;1793517;78;21539;-60
2023/03/30 09:47:21;;;;;;;10.48;7.85;;;;;;;19.90;55.96;98827.98;1801151;78;21097;-60
2023/03/30 09:49:48;;;;;;;11.80;7.80;;;;;;;19.79;50.52;98822.92;1797589;78;21131;-59
2023/03/30 09:52:21;;;;;;;7.92;7.17;;;;;;;19.08;49.10;98823.70;1804151;78;20978;-59
2023/03/30 09:54:47;;;;;;;15.53;8.23;;;;;;;19.08;52.92;98817.59;1804767;78;21105;-59
2023/03/30 09:57:26;;;;;;;9.30;7.97;;;;;;;19.67;53.07;98808.27;1801710;78;21167;-59
2023/03/30 09:59:54;;;;;;;19.32;9.08;;;;;;;19.83;51.56;98797.80;1804235;78;21633;-57
2023/03/30 10:02:23;;;;;;;12.65;8.05;;;;;;;21.69;49.90;98790.43;1799250;78;21013;-56
2023/03/30 10:04:55;;;;;;;9.30;6.92;;;;;;;23.34;50.33;98788.42;1806400;78;21040;-56
2023/03/30 10:07:25;;;;;;;7.85;6.40;;;;;;;24.54;49.52;98782.38;1809654;78;20966;-56
2023/03/30 10:09:52;;;;;;;37.75;8.63;;;;;;;24.85;46.33;98776.81;1806682;78;21548;-57
2023/03/30 10:12:18;;;;;;;8.50;6.72;;;;;;;25.82;49.33;98767.51;1796077;78;21084;-56
2023/03/30 10:14:45;;;;;;;8.10;6.83;;;;;;;27.14;47.37;98763.91;1801128;78;21109;-57
2023/03/30 10:17:26;;;;;;;24.77;7.87;;;;;;;28.43;48.07;98764.07;1802555;78;21139;-58
2023/03/30 10:19:55;;;;;;;7.97;6.70;;;;;;;28.32;45.17;98762.34;1805115;78;21076;-59
2023/03/30 10:22:23;;;;;;;10.90;7.30;;;;;;;27.98;44.34;98762.59;1803086;78;21104;-59
2023/03/30 10:24:52;;;;;;;8.80;6.50;;;;;;;27.91;44.39;98759.10;1808856;78;21128;-60
2023/03/30 10:27:24;;;;;;;13.72;6.95;;;;;;;28.21;43.27;98754.93;1811753;78;21538;-60
2023/03/30 10:29:51;;;;;;;6.05;5.53;;;;;;;28.18;42.65;98751.33;1804846;78;21025;-59
2023/03/30 10:32:21;;;;;;;15.68;6.28;;;;;;;28.86;44.60;98743.37;1810034;78;21626;-59
2023/03/30 10:34:53;;;;;;;7.55;6.78;;;;;;;29.07;42.94;98743.05;1799678;78;21620;-61
2023/03/30 10:37:29;;;;;;;6.53;5.92;;;;;;;28.54;41.64;98741.97;1808038;78;21002;-60
2023/03/30 10:39:58;;;;;;;7.30;5.90;;;;;;;29.13;41.63;98739.52;1804425;78;21507;-59
2023/03/30 10:42:28;;;;;;;6.45;5.50;;;;;;;28.43;37.50;98750.65;1802842;78;20974;-60
2023/03/30 10:45:00;;;;;;;7.65;6.75;;;;;;;26.66;36.93;98754.59;1801182;78;21430;-59
2023/03/30 10:47:42;;;;;;;7.87;5.70;;;;;;;25.18;37.27;98761.71;1798785;78;21468;-58
2023/03/30 10:50:18;;;;;;;8.60;6.28;;;;;;;23.81;38.67;98757.29;1713291;82;21011;-57
2023/03/30 10:52:53;;;;;;;9.03;7.28;;;;;;;22.76;38.65;98752.47;1717280;82;21050;-59
2023/03/30 10:55:26;;;;;;;15.03;7.80;;;;;;;21.71;36.46;98757.08;1710279;82;21664;-58
2023/03/30 10:58:26;;;;;;;7.72;6.92;;;;;;;20.08;37.52;98752.91;1719007;81;21033;-58
2023/03/30 11:01:20;;;;;;;9.03;6.85;;;;;;;19.30;38.26;98753.64;1707880;81;21160;-57
2023/03/30 11:03:46;;;;;;;14.47;6.87;;;;;;;18.48;38.39;98763.78;1685580;82;21096;-58
2023/03/30 11:06:23;;;;;;;7.87;6.30;;;;;;;17.66;38.70;98759.47;1679733;82;21069;-58
2023/03/30 11:08:56;;;;;;;8.93;6.80;;;;;;;17.16;38.84;98754.34;1713679;81;21694;-57
2023/03/30 11:11:41;;;;;;;8.73;6.80;;;;;;;16.76;39.10;98760.53;1707762;82;21704;-58
2023/03/30 11:14:14;;;;;;;9.35;7.05;;;;;;;16.33;39.17;98757.67;1714530;82;21715;-58
2023/03/30 11:16:51;;;;;;;9.33;6.60;;;;;;;15.96;39.55;98743.34;1710622;82;21132;-59
2023/03/30 11:19:21;;;;;;;;;;;;;;;15.71;39.88;98734.05;1715306;82;21074;-58
2023/03/30 11:22:24;;;;;;;8.43;6.87;;;;;;;15.22;40.51;98721.84;1713296;82;20284;-58
2023/03/30 11:24:55;;;;;;;9.38;6.85;;;;;;;14.94;41.86;98714.90;1710487;82;21086;-58
2023/03/30 11:27:30;;;;;;;20.77;9.15;;;;;;;15.11;41.25;98708.75;1760574;78;21013;-57
2023/03/30 11:30:03;;;;;;;14.47;7.85;;;;;;;15.23;41.27;98707.73;1805326;78;21021;-58
2023/03/30 11:32:33;;;;;;;9.97;7.30;;;;;;;14.87;41.42;98711.58;1797126;78;21043;-58
2023/03/30 11:35:28;;;;;;;11.55;7.75;;;;;;;14.81;42.39;98706.33;1802681;78;21080;-58
2023/03/30 11:38:03;;;;;;;12.07;8.95;;;;;;;14.66;41.73;98695.77;1809868;78;21329;-59
2023/03/30 11:40:52;;;;;;;8.83;7.62;;;;;;;14.19;42.97;98697.70;1806645;78;21100;-59
2023/03/30 11:43:25;;;;;;;10.28;7.50;;;;;;;13.82;43.75;98695.31;1767265;79;22305;-59
2023/03/30 11:46:08;;;;;;;9.70;6.90;;;;;;;13.71;44.15;98695.30;1734469;79;22097;-57
2023/03/30 11:48:50;;;;;;;8.23;6.15;;;;;;;13.60;43.99;98691.70;1741615;80;23495;-58
2023/03/30 11:51:29;;;;;;;9.73;7.12;;;;;;;13.58;44.82;98693.62;1766905;79;21568;-59
2023/03/30 11:54:12;;;;;;;8.00;6.42;;;;;;;13.49;44.72;98685.61;1765838;79;22333;-58
2023/03/30 11:56:55;;;;;;;7.50;6.62;;;;;;;13.33;45.32;98676.73;1758511;79;21035;-58
2023/03/30 11:59:55;;;;;;;12.03;6.90;;;;;;;13.13;45.10;98679.52;1772128;78;21107;-58
2023/03/30 12:02:32;;;;;;;9.05;7.85;;;;;;;13.03;46.01;98668.89;1739373;81;21153;-58
2023/03/30 12:05:11;;;;;;;9.47;7.73;;;;;;;12.98;47.18;98677.08;1769652;79;21129;-58
2023/03/30 12:07:41;;;;;;;12.53;7.97;;;;;;;12.84;46.38;98674.64;1767121;79;21090;-57